EHKD/DHR METAR and TAF weather

Enter ICAO airport designator
Station Type Date Time Source
EHKD METAR 2021/05/14 06:55 UTC NOAA

EHKD 140655Z AUTO 01006KT 330V050 9999 OVC016 09/06 Q1008 WHT NOSIG


Station Type Date Time Source
EHKD Decoded METAR 2021/05/14 06:55 UTC NOAA

De Kooy, Netherlands (EHKD) 52-55N 004-47E 14M
May 14, 2021 - 02:55 AM EDT / 2021.05.14 0655 UTC
Wind: from the N (010 degrees) at 7 MPH (6 KT) (direction variable):0
Visibility: greater than 7 mile(s):0
Sky conditions: overcast
Temperature: 48 F (9 C)
Dew Point: 42 F (6 C)
Relative Humidity: 81%
Pressure (altimeter): 29.77 in. Hg (1008 hPa)
ob: EHKD 140655Z AUTO 01006KT 330V050 9999 OVC016 09/06 Q1008 WHT NOSIG
cycle: 7

Station Type Date Time Source
EHKD TAF 2021/05/14 05:06 UTC NOAA

TAF TAF EHKD 140448Z 1405/1417 35004KT 9999 BKN015
BECMG 1408/1411 BKN020 PROB40
TEMPO 1408/1417 FEW012 SCT015

Example: see airport list